sensor_id;sensor_type;location;lat;lon;timestamp;P1;durP1;ratioP1;P2;durP2;ratioP2
14474;SDS011;7323;50.848;4.334;2023-07-02T00:01:50;22.60;;;15.63;;
14474;SDS011;7323;50.848;4.334;2023-07-02T00:04:16;23.33;;;14.70;;
14474;SDS011;7323;50.848;4.334;2023-07-02T00:06:45;28.07;;;17.20;;
14474;SDS011;7323;50.848;4.334;2023-07-02T00:09:12;28.60;;;16.90;;
14474;SDS011;7323;50.848;4.334;2023-07-02T00:11:38;27.83;;;16.20;;
14474;SDS011;7323;50.848;4.334;2023-07-02T00:14:06;29.03;;;17.23;;
14474;SDS011;7323;50.848;4.334;2023-07-02T00:16:32;28.73;;;15.97;;
14474;SDS011;7323;50.848;4.334;2023-07-02T00:18:58;27.33;;;17.07;;
14474;SDS011;7323;50.848;4.334;2023-07-02T00:21:25;24.40;;;16.57;;
14474;SDS011;7323;50.848;4.334;2023-07-02T00:23:54;24.03;;;16.40;;
14474;SDS011;7323;50.848;4.334;2023-07-02T00:26:23;25.40;;;17.23;;
14474;SDS011;7323;50.848;4.334;2023-07-02T00:28:50;28.33;;;17.40;;
14474;SDS011;7323;50.848;4.334;2023-07-02T00:31:16;26.87;;;17.20;;
14474;SDS011;7323;50.848;4.334;2023-07-02T00:33:42;27.23;;;17.93;;
14474;SDS011;7323;50.848;4.334;2023-07-02T00:36:08;28.67;;;17.40;;
14474;SDS011;7323;50.848;4.334;2023-07-02T00:38:39;27.47;;;17.60;;
14474;SDS011;7323;50.848;4.334;2023-07-02T00:41:05;26.83;;;17.53;;
14474;SDS011;7323;50.848;4.334;2023-07-02T00:43:31;26.83;;;17.53;;
14474;SDS011;7323;50.848;4.334;2023-07-02T00:45:57;28.53;;;18.57;;
14474;SDS011;7323;50.848;4.334;2023-07-02T00:48:23;28.07;;;18.50;;
14474;SDS011;7323;50.848;4.334;2023-07-02T00:50:48;28.23;;;19.17;;
14474;SDS011;7323;50.848;4.334;2023-07-02T00:53:15;30.23;;;18.93;;
14474;SDS011;7323;50.848;4.334;2023-07-02T00:55:41;31.70;;;19.83;;
14474;SDS011;7323;50.848;4.334;2023-07-02T00:58:07;33.87;;;19.67;;
14474;SDS011;7323;50.848;4.334;2023-07-02T01:00:33;28.80;;;18.93;;
14474;SDS011;7323;50.848;4.334;2023-07-02T01:02:59;38.97;;;20.30;;
14474;SDS011;7323;50.848;4.334;2023-07-02T01:05:25;29.67;;;19.00;;
14474;SDS011;7323;50.848;4.334;2023-07-02T01:08:01;30.33;;;19.13;;
14474;SDS011;7323;50.848;4.334;2023-07-02T01:10:30;28.63;;;18.90;;
14474;SDS011;7323;50.848;4.334;2023-07-02T01:12:59;29.67;;;19.37;;
14474;SDS011;7323;50.848;4.334;2023-07-02T01:15:28;34.83;;;19.57;;
14474;SDS011;7323;50.848;4.334;2023-07-02T01:17:54;35.03;;;19.93;;
14474;SDS011;7323;50.848;4.334;2023-07-02T01:20:20;32.47;;;20.80;;
14474;SDS011;7323;50.848;4.334;2023-07-02T01:22:47;33.47;;;20.60;;
14474;SDS011;7323;50.848;4.334;2023-07-02T01:25:16;31.30;;;20.00;;
14474;SDS011;7323;50.848;4.334;2023-07-02T01:27:42;33.63;;;21.23;;
14474;SDS011;7323;50.848;4.334;2023-07-02T01:30:08;32.77;;;20.97;;
14474;SDS011;7323;50.848;4.334;2023-07-02T01:32:35;35.43;;;21.60;;
14474;SDS011;7323;50.848;4.334;2023-07-02T01:35:01;35.63;;;20.83;;
14474;SDS011;7323;50.848;4.334;2023-07-02T01:37:27;36.07;;;20.43;;
14474;SDS011;7323;50.848;4.334;2023-07-02T01:39:59;34.23;;;20.60;;
14474;SDS011;7323;50.848;4.334;2023-07-02T01:42:25;33.67;;;20.87;;
14474;SDS011;7323;50.848;4.334;2023-07-02T01:44:52;35.17;;;21.20;;
14474;SDS011;7323;50.848;4.334;2023-07-02T01:47:18;33.43;;;21.57;;
14474;SDS011;7323;50.848;4.334;2023-07-02T01:49:45;33.97;;;21.87;;
14474;SDS011;7323;50.848;4.334;2023-07-02T01:52:10;34.17;;;21.87;;
14474;SDS011;7323;50.848;4.334;2023-07-02T01:54:36;30.80;;;21.23;;
14474;SDS011;7323;50.848;4.334;2023-07-02T01:57:02;36.13;;;21.03;;
14474;SDS011;7323;50.848;4.334;2023-07-02T01:59:29;33.37;;;21.57;;
14474;SDS011;7323;50.848;4.334;2023-07-02T02:01:57;39.83;;;22.00;;
14474;SDS011;7323;50.848;4.334;2023-07-02T02:04:25;33.40;;;20.83;;
14474;SDS011;7323;50.848;4.334;2023-07-02T02:06:53;33.73;;;21.83;;
14474;SDS011;7323;50.848;4.334;2023-07-02T02:09:19;36.90;;;22.07;;
14474;SDS011;7323;50.848;4.334;2023-07-02T02:11:49;35.47;;;22.00;;
14474;SDS011;7323;50.848;4.334;2023-07-02T02:14:18;36.77;;;21.60;;
14474;SDS011;7323;50.848;4.334;2023-07-02T02:16:43;35.57;;;22.50;;
14474;SDS011;7323;50.848;4.334;2023-07-02T02:19:12;31.93;;;21.17;;
14474;SDS011;7323;50.848;4.334;2023-07-02T02:21:40;37.30;;;22.40;;
14474;SDS011;7323;50.848;4.334;2023-07-02T02:24:06;35.17;;;22.97;;
14474;SDS011;7323;50.848;4.334;2023-07-02T02:26:32;36.57;;;21.67;;
14474;SDS011;7323;50.848;4.334;2023-07-02T02:28:59;36.87;;;22.83;;
14474;SDS011;7323;50.848;4.334;2023-07-02T02:31:25;37.90;;;22.77;;
14474;SDS011;7323;50.848;4.334;2023-07-02T02:33:50;37.07;;;21.90;;
14474;SDS011;7323;50.848;4.334;2023-07-02T02:36:16;37.13;;;23.07;;
14474;SDS011;7323;50.848;4.334;2023-07-02T02:38:42;40.10;;;22.80;;
14474;SDS011;7323;50.848;4.334;2023-07-02T02:41:08;36.17;;;22.77;;
14474;SDS011;7323;50.848;4.334;2023-07-02T02:43:34;43.07;;;25.30;;
14474;SDS011;7323;50.848;4.334;2023-07-02T02:46:00;38.57;;;23.13;;
14474;SDS011;7323;50.848;4.334;2023-07-02T02:48:25;36.97;;;24.13;;
14474;SDS011;7323;50.848;4.334;2023-07-02T02:50:51;38.57;;;23.23;;
14474;SDS011;7323;50.848;4.334;2023-07-02T02:53:17;37.83;;;22.90;;
14474;SDS011;7323;50.848;4.334;2023-07-02T02:55:43;44.70;;;24.40;;
14474;SDS011;7323;50.848;4.334;2023-07-02T02:58:08;36.57;;;22.47;;
14474;SDS011;7323;50.848;4.334;2023-07-02T03:00:34;40.33;;;24.07;;
14474;SDS011;7323;50.848;4.334;2023-07-02T03:03:00;41.67;;;24.47;;
14474;SDS011;7323;50.848;4.334;2023-07-02T03:05:26;38.93;;;23.83;;
14474;SDS011;7323;50.848;4.334;2023-07-02T03:07:52;41.00;;;23.93;;
14474;SDS011;7323;50.848;4.334;2023-07-02T03:10:17;43.97;;;23.57;;
14474;SDS011;7323;50.848;4.334;2023-07-02T03:12:43;42.10;;;24.17;;
14474;SDS011;7323;50.848;4.334;2023-07-02T03:15:15;37.90;;;22.97;;
14474;SDS011;7323;50.848;4.334;2023-07-02T03:20:12;37.13;;;24.17;;
14474;SDS011;7323;50.848;4.334;2023-07-02T03:22:37;40.73;;;23.90;;
14474;SDS011;7323;50.848;4.334;2023-07-02T03:25:03;38.40;;;24.17;;
14474;SDS011;7323;50.848;4.334;2023-07-02T03:27:29;44.27;;;25.67;;
14474;SDS011;7323;50.848;4.334;2023-07-02T03:29:56;43.30;;;24.50;;
14474;SDS011;7323;50.848;4.334;2023-07-02T03:34:50;38.47;;;24.20;;
14474;SDS011;7323;50.848;4.334;2023-07-02T03:37:16;42.87;;;24.97;;
14474;SDS011;7323;50.848;4.334;2023-07-02T03:39:43;49.10;;;25.53;;
14474;SDS011;7323;50.848;4.334;2023-07-02T03:42:08;44.17;;;25.17;;
14474;SDS011;7323;50.848;4.334;2023-07-02T03:44:35;45.93;;;25.43;;
14474;SDS011;7323;50.848;4.334;2023-07-02T03:47:01;44.93;;;25.33;;
14474;SDS011;7323;50.848;4.334;2023-07-02T03:49:26;41.93;;;25.87;;
14474;SDS011;7323;50.848;4.334;2023-07-02T03:54:44;44.33;;;25.97;;
14474;SDS011;7323;50.848;4.334;2023-07-02T03:57:10;47.30;;;26.30;;
14474;SDS011;7323;50.848;4.334;2023-07-02T03:59:36;53.37;;;26.23;;
14474;SDS011;7323;50.848;4.334;2023-07-02T04:02:02;50.60;;;27.53;;
14474;SDS011;7323;50.848;4.334;2023-07-02T04:04:28;49.20;;;27.50;;
14474;SDS011;7323;50.848;4.334;2023-07-02T04:06:54;50.97;;;27.43;;
14474;SDS011;7323;50.848;4.334;2023-07-02T04:09:19;44.20;;;27.40;;
14474;SDS011;7323;50.848;4.334;2023-07-02T04:11:45;51.03;;;27.97;;
14474;SDS011;7323;50.848;4.334;2023-07-02T04:14:11;46.77;;;27.80;;
14474;SDS011;7323;50.848;4.334;2023-07-02T04:16:36;45.13;;;27.87;;
14474;SDS011;7323;50.848;4.334;2023-07-02T04:19:02;47.23;;;27.77;;
14474;SDS011;7323;50.848;4.334;2023-07-02T04:21:28;46.80;;;28.53;;
14474;SDS011;7323;50.848;4.334;2023-07-02T04:23:53;46.37;;;29.03;;
14474;SDS011;7323;50.848;4.334;2023-07-02T04:26:19;52.13;;;28.33;;
14474;SDS011;7323;50.848;4.334;2023-07-02T04:28:45;46.10;;;29.03;;
14474;SDS011;7323;50.848;4.334;2023-07-02T04:31:11;50.10;;;28.07;;
14474;SDS011;7323;50.848;4.334;2023-07-02T04:33:36;51.30;;;28.10;;
14474;SDS011;7323;50.848;4.334;2023-07-02T04:36:02;46.60;;;27.07;;
14474;SDS011;7323;50.848;4.334;2023-07-02T04:38:29;45.53;;;27.23;;
14474;SDS011;7323;50.848;4.334;2023-07-02T04:40:54;51.10;;;28.23;;
14474;SDS011;7323;50.848;4.334;2023-07-02T04:43:27;50.30;;;28.47;;
14474;SDS011;7323;50.848;4.334;2023-07-02T04:45:56;51.80;;;28.90;;
14474;SDS011;7323;50.848;4.334;2023-07-02T04:48:22;43.33;;;27.37;;
14474;SDS011;7323;50.848;4.334;2023-07-02T04:50:48;52.37;;;28.70;;
14474;SDS011;7323;50.848;4.334;2023-07-02T04:53:14;55.37;;;30.00;;
14474;SDS011;7323;50.848;4.334;2023-07-02T04:55:46;47.93;;;27.93;;
14474;SDS011;7323;50.848;4.334;2023-07-02T04:58:14;50.17;;;28.83;;
14474;SDS011;7323;50.848;4.334;2023-07-02T05:00:52;50.97;;;29.23;;
14474;SDS011;7323;50.848;4.334;2023-07-02T05:03:18;51.47;;;28.87;;
14474;SDS011;7323;50.848;4.334;2023-07-02T05:10:58;47.30;;;28.33;;
14474;SDS011;7323;50.848;4.334;2023-07-02T05:15:52;49.17;;;29.23;;
14474;SDS011;7323;50.848;4.334;2023-07-02T05:18:18;46.57;;;28.47;;
14474;SDS011;7323;50.848;4.334;2023-07-02T05:20:44;48.97;;;28.17;;
14474;SDS011;7323;50.848;4.334;2023-07-02T05:23:10;55.33;;;30.50;;
14474;SDS011;7323;50.848;4.334;2023-07-02T05:25:35;48.77;;;28.57;;
14474;SDS011;7323;50.848;4.334;2023-07-02T05:30:30;51.77;;;28.30;;
14474;SDS011;7323;50.848;4.334;2023-07-02T05:32:56;48.80;;;29.43;;
14474;SDS011;7323;50.848;4.334;2023-07-02T05:35:22;43.80;;;27.60;;
14474;SDS011;7323;50.848;4.334;2023-07-02T05:37:47;48.93;;;27.60;;
14474;SDS011;7323;50.848;4.334;2023-07-02T05:40:13;46.03;;;27.83;;
14474;SDS011;7323;50.848;4.334;2023-07-02T05:42:39;47.40;;;29.33;;
14474;SDS011;7323;50.848;4.334;2023-07-02T05:45:04;49.83;;;28.10;;
14474;SDS011;7323;50.848;4.334;2023-07-02T05:47:30;51.90;;;28.83;;
14474;SDS011;7323;50.848;4.334;2023-07-02T05:49:56;48.13;;;28.10;;
14474;SDS011;7323;50.848;4.334;2023-07-02T05:52:22;49.60;;;28.23;;
14474;SDS011;7323;50.848;4.334;2023-07-02T05:54:48;51.30;;;28.87;;
14474;SDS011;7323;50.848;4.334;2023-07-02T05:57:13;45.23;;;26.73;;
14474;SDS011;7323;50.848;4.334;2023-07-02T05:59:39;47.20;;;27.67;;
14474;SDS011;7323;50.848;4.334;2023-07-02T06:02:06;45.40;;;28.43;;
14474;SDS011;7323;50.848;4.334;2023-07-02T06:04:31;47.00;;;27.20;;
14474;SDS011;7323;50.848;4.334;2023-07-02T06:06:57;47.27;;;28.27;;
14474;SDS011;7323;50.848;4.334;2023-07-02T06:11:52;38.60;;;25.03;;
14474;SDS011;7323;50.848;4.334;2023-07-02T06:14:26;45.63;;;27.33;;
14474;SDS011;7323;50.848;4.334;2023-07-02T06:16:52;47.40;;;26.83;;
14474;SDS011;7323;50.848;4.334;2023-07-02T06:19:18;44.97;;;25.33;;
14474;SDS011;7323;50.848;4.334;2023-07-02T06:21:43;38.40;;;26.10;;
14474;SDS011;7323;50.848;4.334;2023-07-02T06:24:09;47.40;;;26.50;;
14474;SDS011;7323;50.848;4.334;2023-07-02T06:26:35;43.40;;;26.43;;
14474;SDS011;7323;50.848;4.334;2023-07-02T06:29:00;42.13;;;25.10;;
14474;SDS011;7323;50.848;4.334;2023-07-02T06:31:26;39.13;;;25.47;;
14474;SDS011;7323;50.848;4.334;2023-07-02T06:33:52;43.17;;;26.17;;
14474;SDS011;7323;50.848;4.334;2023-07-02T06:36:18;38.17;;;23.50;;
14474;SDS011;7323;50.848;4.334;2023-07-02T06:38:44;39.80;;;23.67;;
14474;SDS011;7323;50.848;4.334;2023-07-02T06:41:10;40.20;;;22.87;;
14474;SDS011;7323;50.848;4.334;2023-07-02T06:43:36;34.33;;;22.20;;
14474;SDS011;7323;50.848;4.334;2023-07-02T06:46:01;36.27;;;21.20;;
14474;SDS011;7323;50.848;4.334;2023-07-02T06:48:27;34.93;;;22.17;;
14474;SDS011;7323;50.848;4.334;2023-07-02T06:50:53;38.30;;;20.90;;
14474;SDS011;7323;50.848;4.334;2023-07-02T06:53:20;33.07;;;21.13;;
14474;SDS011;7323;50.848;4.334;2023-07-02T06:55:46;34.37;;;21.43;;
14474;SDS011;7323;50.848;4.334;2023-07-02T06:58:14;30.10;;;19.77;;
14474;SDS011;7323;50.848;4.334;2023-07-02T07:00:39;37.73;;;20.93;;
14474;SDS011;7323;50.848;4.334;2023-07-02T07:03:05;33.03;;;19.17;;
14474;SDS011;7323;50.848;4.334;2023-07-02T07:05:31;33.37;;;19.30;;
14474;SDS011;7323;50.848;4.334;2023-07-02T07:07:57;30.30;;;17.27;;
14474;SDS011;7323;50.848;4.334;2023-07-02T07:10:24;28.87;;;17.10;;
14474;SDS011;7323;50.848;4.334;2023-07-02T07:12:49;30.57;;;16.63;;
14474;SDS011;7323;50.848;4.334;2023-07-02T07:15:15;29.63;;;15.93;;
14474;SDS011;7323;50.848;4.334;2023-07-02T07:17:41;24.70;;;15.60;;
14474;SDS011;7323;50.848;4.334;2023-07-02T07:20:06;30.73;;;16.50;;
14474;SDS011;7323;50.848;4.334;2023-07-02T07:22:33;27.57;;;15.87;;
14474;SDS011;7323;50.848;4.334;2023-07-02T07:24:59;29.17;;;15.30;;
14474;SDS011;7323;50.848;4.334;2023-07-02T07:27:25;27.97;;;16.17;;
14474;SDS011;7323;50.848;4.334;2023-07-02T07:29:50;23.40;;;14.27;;
14474;SDS011;7323;50.848;4.334;2023-07-02T07:32:16;23.10;;;14.87;;
14474;SDS011;7323;50.848;4.334;2023-07-02T07:34:42;22.53;;;14.43;;
14474;SDS011;7323;50.848;4.334;2023-07-02T07:37:07;24.90;;;13.80;;
14474;SDS011;7323;50.848;4.334;2023-07-02T07:39:33;23.60;;;13.87;;
14474;SDS011;7323;50.848;4.334;2023-07-02T07:41:59;21.03;;;12.93;;
14474;SDS011;7323;50.848;4.334;2023-07-02T07:44:24;19.57;;;10.93;;
14474;SDS011;7323;50.848;4.334;2023-07-02T07:46:54;22.23;;;11.90;;
14474;SDS011;7323;50.848;4.334;2023-07-02T07:49:21;17.40;;;10.70;;
14474;SDS011;7323;50.848;4.334;2023-07-02T07:51:46;21.17;;;11.07;;
14474;SDS011;7323;50.848;4.334;2023-07-02T07:54:13;24.07;;;11.50;;
14474;SDS011;7323;50.848;4.334;2023-07-02T07:56:38;24.33;;;12.93;;
14474;SDS011;7323;50.848;4.334;2023-07-02T07:59:04;22.30;;;12.47;;
14474;SDS011;7323;50.848;4.334;2023-07-02T08:01:30;22.90;;;12.20;;
14474;SDS011;7323;50.848;4.334;2023-07-02T08:03:55;22.83;;;12.90;;
14474;SDS011;7323;50.848;4.334;2023-07-02T08:06:22;21.60;;;12.43;;
14474;SDS011;7323;50.848;4.334;2023-07-02T08:08:47;20.07;;;12.17;;
14474;SDS011;7323;50.848;4.334;2023-07-02T08:11:13;21.90;;;12.07;;
14474;SDS011;7323;50.848;4.334;2023-07-02T08:13:39;23.47;;;12.60;;
14474;SDS011;7323;50.848;4.334;2023-07-02T08:16:05;20.13;;;12.93;;
14474;SDS011;7323;50.848;4.334;2023-07-02T08:18:31;20.27;;;12.37;;
14474;SDS011;7323;50.848;4.334;2023-07-02T08:20:56;21.20;;;12.53;;
14474;SDS011;7323;50.848;4.334;2023-07-02T08:23:22;21.47;;;12.07;;
14474;SDS011;7323;50.848;4.334;2023-07-02T08:25:48;19.47;;;11.17;;
14474;SDS011;7323;50.848;4.334;2023-07-02T08:28:15;24.87;;;12.87;;
14474;SDS011;7323;50.848;4.334;2023-07-02T08:30:41;21.20;;;12.47;;
14474;SDS011;7323;50.848;4.334;2023-07-02T08:33:06;22.77;;;12.53;;
14474;SDS011;7323;50.848;4.334;2023-07-02T08:35:32;20.87;;;13.30;;
14474;SDS011;7323;50.848;4.334;2023-07-02T08:37:57;23.77;;;12.77;;
14474;SDS011;7323;50.848;4.334;2023-07-02T08:40:23;23.00;;;13.60;;
14474;SDS011;7323;50.848;4.334;2023-07-02T08:42:49;29.17;;;14.97;;
14474;SDS011;7323;50.848;4.334;2023-07-02T08:45:15;24.93;;;14.97;;
14474;SDS011;7323;50.848;4.334;2023-07-02T08:47:42;22.23;;;13.73;;
14474;SDS011;7323;50.848;4.334;2023-07-02T08:52:46;26.43;;;14.07;;
14474;SDS011;7323;50.848;4.334;2023-07-02T08:55:12;23.17;;;13.73;;
14474;SDS011;7323;50.848;4.334;2023-07-02T08:57:38;23.33;;;13.77;;
14474;SDS011;7323;50.848;4.334;2023-07-02T09:00:04;21.13;;;12.43;;
14474;SDS011;7323;50.848;4.334;2023-07-02T09:02:34;21.30;;;12.07;;
14474;SDS011;7323;50.848;4.334;2023-07-02T09:05:01;25.63;;;12.73;;
14474;SDS011;7323;50.848;4.334;2023-07-02T09:07:28;20.80;;;12.23;;
14474;SDS011;7323;50.848;4.334;2023-07-02T09:09:54;23.33;;;12.73;;
14474;SDS011;7323;50.848;4.334;2023-07-02T09:15:02;23.20;;;11.47;;
14474;SDS011;7323;50.848;4.334;2023-07-02T09:17:34;18.97;;;12.50;;
14474;SDS011;7323;50.848;4.334;2023-07-02T09:20:01;22.80;;;12.83;;
14474;SDS011;7323;50.848;4.334;2023-07-02T09:22:35;22.30;;;13.10;;
14474;SDS011;7323;50.848;4.334;2023-07-02T09:25:03;21.30;;;13.10;;
14474;SDS011;7323;50.848;4.334;2023-07-02T09:27:33;20.77;;;12.30;;
14474;SDS011;7323;50.848;4.334;2023-07-02T09:30:07;23.57;;;13.20;;
14474;SDS011;7323;50.848;4.334;2023-07-02T09:32:35;21.23;;;13.27;;
14474;SDS011;7323;50.848;4.334;2023-07-02T09:35:03;21.67;;;12.23;;
14474;SDS011;7323;50.848;4.334;2023-07-02T09:37:30;23.60;;;12.40;;
14474;SDS011;7323;50.848;4.334;2023-07-02T09:39:56;21.20;;;12.50;;
14474;SDS011;7323;50.848;4.334;2023-07-02T09:42:22;21.30;;;11.77;;
14474;SDS011;7323;50.848;4.334;2023-07-02T09:44:57;21.43;;;12.37;;
14474;SDS011;7323;50.848;4.334;2023-07-02T09:47:24;21.60;;;10.97;;
14474;SDS011;7323;50.848;4.334;2023-07-02T09:50:02;22.70;;;11.80;;
14474;SDS011;7323;50.848;4.334;2023-07-02T09:52:30;19.47;;;11.27;;
14474;SDS011;7323;50.848;4.334;2023-07-02T09:54:58;16.93;;;11.03;;
14474;SDS011;7323;50.848;4.334;2023-07-02T09:57:24;18.67;;;11.13;;
14474;SDS011;7323;50.848;4.334;2023-07-02T09:59:51;19.50;;;11.03;;
14474;SDS011;7323;50.848;4.334;2023-07-02T10:02:16;20.33;;;11.53;;
14474;SDS011;7323;50.848;4.334;2023-07-02T10:04:43;19.80;;;11.10;;
14474;SDS011;7323;50.848;4.334;2023-07-02T10:07:10;21.87;;;11.10;;
14474;SDS011;7323;50.848;4.334;2023-07-02T10:12:19;21.10;;;12.23;;
14474;SDS011;7323;50.848;4.334;2023-07-02T10:14:46;24.20;;;11.83;;
14474;SDS011;7323;50.848;4.334;2023-07-02T10:17:23;19.10;;;11.90;;
14474;SDS011;7323;50.848;4.334;2023-07-02T10:19:51;21.77;;;11.40;;
14474;SDS011;7323;50.848;4.334;2023-07-02T10:22:18;21.80;;;11.50;;
14474;SDS011;7323;50.848;4.334;2023-07-02T10:24:54;17.20;;;10.43;;
14474;SDS011;7323;50.848;4.334;2023-07-02T10:27:32;21.77;;;12.13;;
14474;SDS011;7323;50.848;4.334;2023-07-02T10:29:59;20.13;;;11.60;;
14474;SDS011;7323;50.848;4.334;2023-07-02T10:32:26;21.03;;;10.90;;
14474;SDS011;7323;50.848;4.334;2023-07-02T10:34:54;20.17;;;11.63;;
14474;SDS011;7323;50.848;4.334;2023-07-02T10:37:20;20.07;;;11.00;;
14474;SDS011;7323;50.848;4.334;2023-07-02T10:39:46;15.80;;;10.53;;
14474;SDS011;7323;50.848;4.334;2023-07-02T10:42:13;18.83;;;10.97;;
14474;SDS011;7323;50.848;4.334;2023-07-02T10:44:51;19.33;;;10.10;;
14474;SDS011;7323;50.848;4.334;2023-07-02T10:47:19;18.63;;;11.27;;
14474;SDS011;7323;50.848;4.334;2023-07-02T10:49:45;22.17;;;10.23;;
14474;SDS011;7323;50.848;4.334;2023-07-02T10:52:11;20.53;;;10.93;;
14474;SDS011;7323;50.848;4.334;2023-07-02T10:54:43;20.80;;;10.83;;
14474;SDS011;7323;50.848;4.334;2023-07-02T10:57:14;19.67;;;11.80;;
14474;SDS011;7323;50.848;4.334;2023-07-02T10:59:47;20.70;;;10.97;;
14474;SDS011;7323;50.848;4.334;2023-07-02T11:02:14;20.17;;;11.03;;
14474;SDS011;7323;50.848;4.334;2023-07-02T11:04:40;19.37;;;10.03;;
14474;SDS011;7323;50.848;4.334;2023-07-02T11:07:06;18.70;;;10.67;;
14474;SDS011;7323;50.848;4.334;2023-07-02T11:09:33;19.93;;;10.67;;
14474;SDS011;7323;50.848;4.334;2023-07-02T11:12:00;17.57;;;10.30;;
14474;SDS011;7323;50.848;4.334;2023-07-02T11:14:35;20.80;;;10.23;;
14474;SDS011;7323;50.848;4.334;2023-07-02T11:17:03;18.37;;;10.83;;
14474;SDS011;7323;50.848;4.334;2023-07-02T11:19:34;18.47;;;9.83;;
14474;SDS011;7323;50.848;4.334;2023-07-02T11:22:00;17.97;;;10.00;;
14474;SDS011;7323;50.848;4.334;2023-07-02T11:26:59;22.23;;;10.27;;
14474;SDS011;7323;50.848;4.334;2023-07-02T11:29:28;18.07;;;9.97;;
14474;SDS011;7323;50.848;4.334;2023-07-02T11:31:54;13.57;;;9.20;;
14474;SDS011;7323;50.848;4.334;2023-07-02T11:34:29;16.03;;;10.07;;
14474;SDS011;7323;50.848;4.334;2023-07-02T11:36:54;15.27;;;10.00;;
14474;SDS011;7323;50.848;4.334;2023-07-02T11:39:20;18.97;;;10.60;;
14474;SDS011;7323;50.848;4.334;2023-07-02T11:41:47;17.47;;;9.80;;
14474;SDS011;7323;50.848;4.334;2023-07-02T11:44:13;18.90;;;9.80;;
14474;SDS011;7323;50.848;4.334;2023-07-02T11:46:40;15.77;;;9.13;;
14474;SDS011;7323;50.848;4.334;2023-07-02T11:49:09;18.27;;;9.90;;
14474;SDS011;7323;50.848;4.334;2023-07-02T11:51:36;17.70;;;10.17;;
14474;SDS011;7323;50.848;4.334;2023-07-02T11:54:03;15.93;;;9.87;;
14474;SDS011;7323;50.848;4.334;2023-07-02T11:56:29;19.17;;;10.40;;
14474;SDS011;7323;50.848;4.334;2023-07-02T11:58:55;18.33;;;10.10;;
14474;SDS011;7323;50.848;4.334;2023-07-02T12:01:21;19.70;;;10.23;;
14474;SDS011;7323;50.848;4.334;2023-07-02T12:03:46;17.37;;;10.73;;
14474;SDS011;7323;50.848;4.334;2023-07-02T12:06:12;17.67;;;10.13;;
14474;SDS011;7323;50.848;4.334;2023-07-02T12:08:38;18.13;;;9.80;;
14474;SDS011;7323;50.848;4.334;2023-07-02T12:11:17;16.60;;;9.53;;
14474;SDS011;7323;50.848;4.334;2023-07-02T12:13:46;16.57;;;9.37;;
14474;SDS011;7323;50.848;4.334;2023-07-02T12:18:40;17.67;;;9.33;;
14474;SDS011;7323;50.848;4.334;2023-07-02T12:21:06;19.97;;;10.57;;
14474;SDS011;7323;50.848;4.334;2023-07-02T12:23:32;18.73;;;10.77;;
14474;SDS011;7323;50.848;4.334;2023-07-02T12:25:58;19.10;;;10.83;;
14474;SDS011;7323;50.848;4.334;2023-07-02T12:28:24;19.93;;;10.70;;
14474;SDS011;7323;50.848;4.334;2023-07-02T12:30:49;16.47;;;10.20;;
14474;SDS011;7323;50.848;4.334;2023-07-02T12:33:15;15.93;;;9.90;;
14474;SDS011;7323;50.848;4.334;2023-07-02T12:35:41;15.10;;;8.90;;
14474;SDS011;7323;50.848;4.334;2023-07-02T12:38:06;16.87;;;9.93;;
14474;SDS011;7323;50.848;4.334;2023-07-02T12:40:34;16.40;;;9.10;;
14474;SDS011;7323;50.848;4.334;2023-07-02T12:43:00;20.87;;;10.83;;
14474;SDS011;7323;50.848;4.334;2023-07-02T12:45:26;17.10;;;9.57;;
14474;SDS011;7323;50.848;4.334;2023-07-02T12:47:52;16.37;;;9.07;;
14474;SDS011;7323;50.848;4.334;2023-07-02T12:50:18;15.77;;;9.83;;
14474;SDS011;7323;50.848;4.334;2023-07-02T12:52:44;17.23;;;9.47;;
14474;SDS011;7323;50.848;4.334;2023-07-02T12:55:10;17.87;;;9.70;;
14474;SDS011;7323;50.848;4.334;2023-07-02T12:57:35;18.57;;;8.80;;
14474;SDS011;7323;50.848;4.334;2023-07-02T13:00:02;14.63;;;9.10;;
14474;SDS011;7323;50.848;4.334;2023-07-02T13:02:30;19.97;;;9.13;;
14474;SDS011;7323;50.848;4.334;2023-07-02T13:04:56;17.67;;;9.10;;
14474;SDS011;7323;50.848;4.334;2023-07-02T13:07:22;17.70;;;10.63;;
14474;SDS011;7323;50.848;4.334;2023-07-02T13:09:49;16.13;;;9.67;;
14474;SDS011;7323;50.848;4.334;2023-07-02T13:12:14;15.43;;;9.10;;
14474;SDS011;7323;50.848;4.334;2023-07-02T13:14:40;16.13;;;9.23;;
14474;SDS011;7323;50.848;4.334;2023-07-02T13:17:06;13.53;;;8.73;;
14474;SDS011;7323;50.848;4.334;2023-07-02T13:19:31;16.40;;;11.63;;
14474;SDS011;7323;50.848;4.334;2023-07-02T13:21:57;14.00;;;8.30;;
14474;SDS011;7323;50.848;4.334;2023-07-02T13:24:23;18.67;;;9.80;;
14474;SDS011;7323;50.848;4.334;2023-07-02T13:26:49;15.10;;;8.33;;
14474;SDS011;7323;50.848;4.334;2023-07-02T13:29:15;14.93;;;8.90;;
14474;SDS011;7323;50.848;4.334;2023-07-02T13:31:41;16.40;;;8.50;;
14474;SDS011;7323;50.848;4.334;2023-07-02T13:34:07;16.10;;;8.80;;
14474;SDS011;7323;50.848;4.334;2023-07-02T13:36:33;15.27;;;8.17;;
14474;SDS011;7323;50.848;4.334;2023-07-02T13:38:58;14.70;;;8.57;;
14474;SDS011;7323;50.848;4.334;2023-07-02T13:41:26;14.90;;;8.67;;
14474;SDS011;7323;50.848;4.334;2023-07-02T13:43:53;17.00;;;8.73;;
14474;SDS011;7323;50.848;4.334;2023-07-02T13:46:19;13.37;;;8.13;;
14474;SDS011;7323;50.848;4.334;2023-07-02T13:48:44;16.23;;;8.17;;
14474;SDS011;7323;50.848;4.334;2023-07-02T13:51:10;12.83;;;7.50;;
14474;SDS011;7323;50.848;4.334;2023-07-02T13:53:36;14.53;;;8.40;;
14474;SDS011;7323;50.848;4.334;2023-07-02T13:56:01;13.63;;;8.03;;
14474;SDS011;7323;50.848;4.334;2023-07-02T14:01:11;16.83;;;8.90;;
14474;SDS011;7323;50.848;4.334;2023-07-02T14:03:37;17.80;;;8.57;;
14474;SDS011;7323;50.848;4.334;2023-07-02T14:06:02;18.27;;;8.43;;
14474;SDS011;7323;50.848;4.334;2023-07-02T14:08:28;14.83;;;9.00;;
14474;SDS011;7323;50.848;4.334;2023-07-02T14:10:54;13.83;;;7.93;;
14474;SDS011;7323;50.848;4.334;2023-07-02T14:13:19;15.37;;;8.70;;
14474;SDS011;7323;50.848;4.334;2023-07-02T14:15:45;14.63;;;7.90;;
14474;SDS011;7323;50.848;4.334;2023-07-02T14:18:10;15.87;;;9.27;;
14474;SDS011;7323;50.848;4.334;2023-07-02T14:20:37;15.93;;;8.20;;
14474;SDS011;7323;50.848;4.334;2023-07-02T14:23:03;13.57;;;7.77;;
14474;SDS011;7323;50.848;4.334;2023-07-02T14:25:29;16.30;;;8.53;;
14474;SDS011;7323;50.848;4.334;2023-07-02T14:27:54;18.23;;;8.27;;
14474;SDS011;7323;50.848;4.334;2023-07-02T14:30:20;15.43;;;8.47;;
14474;SDS011;7323;50.848;4.334;2023-07-02T14:32:45;16.03;;;7.83;;
14474;SDS011;7323;50.848;4.334;2023-07-02T14:35:11;14.93;;;8.03;;
14474;SDS011;7323;50.848;4.334;2023-07-02T14:37:37;13.00;;;7.30;;
14474;SDS011;7323;50.848;4.334;2023-07-02T14:40:03;15.00;;;8.33;;
14474;SDS011;7323;50.848;4.334;2023-07-02T14:42:29;15.80;;;8.20;;
14474;SDS011;7323;50.848;4.334;2023-07-02T14:44:55;13.97;;;7.23;;
14474;SDS011;7323;50.848;4.334;2023-07-02T14:47:21;12.67;;;7.07;;
14474;SDS011;7323;50.848;4.334;2023-07-02T14:49:46;16.03;;;7.67;;
14474;SDS011;7323;50.848;4.334;2023-07-02T14:52:12;16.93;;;8.17;;
14474;SDS011;7323;50.848;4.334;2023-07-02T14:54:38;13.63;;;7.13;;
14474;SDS011;7323;50.848;4.334;2023-07-02T14:57:04;14.87;;;7.10;;
14474;SDS011;7323;50.848;4.334;2023-07-02T14:59:30;13.23;;;7.03;;
14474;SDS011;7323;50.848;4.334;2023-07-02T15:01:55;18.20;;;7.83;;
14474;SDS011;7323;50.848;4.334;2023-07-02T15:04:22;11.40;;;6.57;;
14474;SDS011;7323;50.848;4.334;2023-07-02T15:06:48;13.87;;;7.13;;
14474;SDS011;7323;50.848;4.334;2023-07-02T15:11:44;14.70;;;7.53;;
14474;SDS011;7323;50.848;4.334;2023-07-02T15:14:12;13.00;;;7.07;;